sensor_id;sensor_type;location;lat;lon;timestamp;pressure;altitude;pressure_sealevel;temperature;humidity
34328;BME280;20588;48.840;10.064;2023-05-22T00:01:35;96088.41;;;12.93;nan
34328;BME280;20588;48.840;10.064;2023-05-22T00:04:07;96092.50;;;12.89;nan
34328;BME280;20588;48.840;10.064;2023-05-22T00:06:33;96087.25;;;12.84;nan
34328;BME280;20588;48.840;10.064;2023-05-22T00:08:59;96085.84;;;12.76;nan
34328;BME280;20588;48.840;10.064;2023-05-22T00:11:26;96084.75;;;12.72;nan
34328;BME280;20588;48.840;10.064;2023-05-22T00:13:52;96081.84;;;12.68;nan
34328;BME280;20588;48.840;10.064;2023-05-22T00:16:18;96082.53;;;12.64;nan
34328;BME280;20588;48.840;10.064;2023-05-22T00:18:44;96085.34;;;12.62;nan
34328;BME280;20588;48.840;10.064;2023-05-22T00:21:10;96084.78;;;12.60;nan
34328;BME280;20588;48.840;10.064;2023-05-22T00:23:36;96080.66;;;12.59;nan
34328;BME280;20588;48.840;10.064;2023-05-22T00:26:02;96078.31;;;12.58;nan
34328;BME280;20588;48.840;10.064;2023-05-22T00:28:29;96078.31;;;12.58;nan
34328;BME280;20588;48.840;10.064;2023-05-22T00:30:55;96084.78;;;12.60;nan
34328;BME280;20588;48.840;10.064;2023-05-22T00:33:21;96084.56;;;12.62;nan
34328;BME280;20588;48.840;10.064;2023-05-22T00:35:47;96079.63;;;12.60;nan
34328;BME280;20588;48.840;10.064;2023-05-22T00:38:27;96078.63;;;12.61;nan
34328;BME280;20588;48.840;10.064;2023-05-22T00:40:54;96077.84;;;12.61;nan
34328;BME280;20588;48.840;10.064;2023-05-22T00:43:20;96074.00;;;12.63;nan
34328;BME280;20588;48.840;10.064;2023-05-22T00:45:46;96081.22;;;12.61;nan
34328;BME280;20588;48.840;10.064;2023-05-22T00:48:13;96073.72;;;12.60;nan
34328;BME280;20588;48.840;10.064;2023-05-22T00:50:40;96079.88;;;12.59;nan
34328;BME280;20588;48.840;10.064;2023-05-22T00:53:06;96076.53;;;12.58;nan
34328;BME280;20588;48.840;10.064;2023-05-22T00:55:33;96072.53;;;12.51;nan
34328;BME280;20588;48.840;10.064;2023-05-22T00:58:00;96081.94;;;12.45;nan
34328;BME280;20588;48.840;10.064;2023-05-22T01:00:27;96073.66;;;12.43;nan
34328;BME280;20588;48.840;10.064;2023-05-22T01:02:54;96071.75;;;12.39;nan
34328;BME280;20588;48.840;10.064;2023-05-22T01:05:20;96074.28;;;12.34;nan
34328;BME280;20588;48.840;10.064;2023-05-22T01:07:47;96073.84;;;12.25;nan
34328;BME280;20588;48.840;10.064;2023-05-22T01:10:13;96081.53;;;12.20;nan
34328;BME280;20588;48.840;10.064;2023-05-22T01:15:37;96079.63;;;12.16;nan
34328;BME280;20588;48.840;10.064;2023-05-22T01:18:31;96082.09;;;12.11;nan
34328;BME280;20588;48.840;10.064;2023-05-22T01:21:08;96081.88;;;12.12;nan
34328;BME280;20588;48.840;10.064;2023-05-22T01:26:47;96082.34;;;12.09;nan
34328;BME280;20588;48.840;10.064;2023-05-22T01:29:38;96089.44;;;12.02;nan
34328;BME280;20588;48.840;10.064;2023-05-22T01:32:09;96092.69;;;11.98;nan
34328;BME280;20588;48.840;10.064;2023-05-22T01:34:36;96087.44;;;11.93;nan
34328;BME280;20588;48.840;10.064;2023-05-22T01:37:04;96092.47;;;11.88;nan
34328;BME280;20588;48.840;10.064;2023-05-22T01:39:32;96096.31;;;11.85;nan
34328;BME280;20588;48.840;10.064;2023-05-22T01:41:58;96098.56;;;11.82;nan
34328;BME280;20588;48.840;10.064;2023-05-22T01:44:24;96100.81;;;11.78;nan
34328;BME280;20588;48.840;10.064;2023-05-22T01:46:51;96104.84;;;11.74;nan
34328;BME280;20588;48.840;10.064;2023-05-22T01:49:17;96108.22;;;11.75;nan
34328;BME280;20588;48.840;10.064;2023-05-22T01:51:49;96106.31;;;11.70;nan
34328;BME280;20588;48.840;10.064;2023-05-22T02:02:18;96115.59;;;11.60;nan
34328;BME280;20588;48.840;10.064;2023-05-22T02:04:51;96113.47;;;11.57;nan
34328;BME280;20588;48.840;10.064;2023-05-22T02:07:20;96112.56;;;11.51;nan
34328;BME280;20588;48.840;10.064;2023-05-22T02:09:47;96112.47;;;11.46;nan
34328;BME280;20588;48.840;10.064;2023-05-22T02:12:14;96116.50;;;11.42;nan
34328;BME280;20588;48.840;10.064;2023-05-22T02:14:42;96113.38;;;11.40;nan
34328;BME280;20588;48.840;10.064;2023-05-22T02:17:08;96116.19;;;11.39;nan
34328;BME280;20588;48.840;10.064;2023-05-22T02:19:34;96110.44;;;11.37;nan
34328;BME280;20588;48.840;10.064;2023-05-22T02:22:01;96110.69;;;11.35;nan
34328;BME280;20588;48.840;10.064;2023-05-22T02:24:28;96119.66;;;11.33;nan
34328;BME280;20588;48.840;10.064;2023-05-22T02:26:54;96124.22;;;11.31;nan
34328;BME280;20588;48.840;10.064;2023-05-22T02:29:21;96118.94;;;11.26;nan
34328;BME280;20588;48.840;10.064;2023-05-22T02:31:47;96123.00;;;11.22;nan
34328;BME280;20588;48.840;10.064;2023-05-22T02:34:13;96117.28;;;11.20;nan
34328;BME280;20588;48.840;10.064;2023-05-22T02:36:40;96114.38;;;11.16;nan
34328;BME280;20588;48.840;10.064;2023-05-22T02:39:06;96116.59;;;11.13;nan
34328;BME280;20588;48.840;10.064;2023-05-22T02:41:32;96119.06;;;11.08;nan
34328;BME280;20588;48.840;10.064;2023-05-22T02:43:58;96112.22;;;11.02;nan
34328;BME280;20588;48.840;10.064;2023-05-22T02:46:24;96117.03;;;10.98;nan
34328;BME280;20588;48.840;10.064;2023-05-22T02:48:50;96111.31;;;10.96;nan
34328;BME280;20588;48.840;10.064;2023-05-22T02:51:16;96111.78;;;10.93;nan
34328;BME280;20588;48.840;10.064;2023-05-22T02:53:42;96116.34;;;10.91;nan
34328;BME280;20588;48.840;10.064;2023-05-22T02:56:09;96112.66;;;10.87;nan
34328;BME280;20588;48.840;10.064;2023-05-22T02:58:38;96113.31;;;10.82;nan
34328;BME280;20588;48.840;10.064;2023-05-22T03:01:05;96115.75;;;10.77;nan
34328;BME280;20588;48.840;10.064;2023-05-22T03:03:35;96115.84;;;10.71;nan
34328;BME280;20588;48.840;10.064;2023-05-22T03:06:01;96114.50;;;10.68;nan
34328;BME280;20588;48.840;10.064;2023-05-22T03:08:29;96115.97;;;10.64;nan
34328;BME280;20588;48.840;10.064;2023-05-22T03:10:57;96109.44;;;10.62;nan
34328;BME280;20588;48.840;10.064;2023-05-22T03:13:23;96118.19;;;10.61;nan
34328;BME280;20588;48.840;10.064;2023-05-22T03:15:50;96114.28;;;10.58;nan
34328;BME280;20588;48.840;10.064;2023-05-22T03:18:16;96116.06;;;10.58;nan
34328;BME280;20588;48.840;10.064;2023-05-22T03:20:42;96122.44;;;10.55;nan
34328;BME280;20588;48.840;10.064;2023-05-22T03:23:09;96123.63;;;10.53;nan
34328;BME280;20588;48.840;10.064;2023-05-22T03:25:36;96118.94;;;10.50;nan
34328;BME280;20588;48.840;10.064;2023-05-22T03:28:02;96128.09;;;10.46;nan
34328;BME280;20588;48.840;10.064;2023-05-22T03:30:28;96127.72;;;10.42;nan
34328;BME280;20588;48.840;10.064;2023-05-22T03:32:54;96125.59;;;10.39;nan
34328;BME280;20588;48.840;10.064;2023-05-22T03:35:20;96128.59;;;10.36;nan
34328;BME280;20588;48.840;10.064;2023-05-22T03:37:46;96122.13;;;10.34;nan
34328;BME280;20588;48.840;10.064;2023-05-22T03:40:12;96121.31;;;10.33;nan
34328;BME280;20588;48.840;10.064;2023-05-22T03:42:38;96121.53;;;10.32;nan
34328;BME280;20588;48.840;10.064;2023-05-22T03:45:05;96118.75;;;10.33;nan
34328;BME280;20588;48.840;10.064;2023-05-22T03:47:31;96122.69;;;10.36;nan
34328;BME280;20588;48.840;10.064;2023-05-22T03:49:57;96127.63;;;10.37;nan
34328;BME280;20588;48.840;10.064;2023-05-22T03:52:23;96128.53;;;10.43;nan
34328;BME280;20588;48.840;10.064;2023-05-22T03:54:49;96127.28;;;10.45;nan
34328;BME280;20588;48.840;10.064;2023-05-22T03:57:16;96124.88;;;10.50;nan
34328;BME280;20588;48.840;10.064;2023-05-22T03:59:44;96122.66;;;10.54;nan
34328;BME280;20588;48.840;10.064;2023-05-22T04:02:11;96127.91;;;10.59;nan
34328;BME280;20588;48.840;10.064;2023-05-22T04:04:38;96126.59;;;10.68;nan
34328;BME280;20588;48.840;10.064;2023-05-22T04:07:05;96132.00;;;10.78;nan
34328;BME280;20588;48.840;10.064;2023-05-22T04:09:34;96133.56;;;10.90;nan
34328;BME280;20588;48.840;10.064;2023-05-22T04:12:00;96138.88;;;11.07;nan
34328;BME280;20588;48.840;10.064;2023-05-22T04:14:27;96134.19;;;11.50;nan
34328;BME280;20588;48.840;10.064;2023-05-22T04:16:54;96135.63;;;12.32;nan
34328;BME280;20588;48.840;10.064;2023-05-22T04:19:20;96129.50;;;13.22;nan
34328;BME280;20588;48.840;10.064;2023-05-22T04:21:47;96127.31;;;14.12;nan
34328;BME280;20588;48.840;10.064;2023-05-22T04:24:13;96128.72;;;14.94;nan
34328;BME280;20588;48.840;10.064;2023-05-22T04:26:39;96133.91;;;15.62;nan
34328;BME280;20588;48.840;10.064;2023-05-22T04:29:05;96131.66;;;16.33;nan
34328;BME280;20588;48.840;10.064;2023-05-22T04:31:35;96142.72;;;17.00;nan
34328;BME280;20588;48.840;10.064;2023-05-22T04:34:01;96140.13;;;17.60;nan
34328;BME280;20588;48.840;10.064;2023-05-22T04:36:27;96135.88;;;17.94;nan
34328;BME280;20588;48.840;10.064;2023-05-22T04:38:54;96142.94;;;17.83;nan
34328;BME280;20588;48.840;10.064;2023-05-22T04:41:20;96139.09;;;17.61;nan
34328;BME280;20588;48.840;10.064;2023-05-22T04:43:53;96142.47;;;17.31;nan
34328;BME280;20588;48.840;10.064;2023-05-22T04:46:19;96148.44;;;16.92;nan
34328;BME280;20588;48.840;10.064;2023-05-22T04:48:45;96152.00;;;16.56;nan
34328;BME280;20588;48.840;10.064;2023-05-22T04:51:12;96156.63;;;16.44;nan
34328;BME280;20588;48.840;10.064;2023-05-22T04:53:39;96148.34;;;16.47;nan
34328;BME280;20588;48.840;10.064;2023-05-22T04:56:06;96150.63;;;16.38;nan
34328;BME280;20588;48.840;10.064;2023-05-22T04:58:32;96152.88;;;16.19;nan
34328;BME280;20588;48.840;10.064;2023-05-22T05:00:58;96157.25;;;16.09;nan
34328;BME280;20588;48.840;10.064;2023-05-22T05:03:24;96169.22;;;16.15;nan
34328;BME280;20588;48.840;10.064;2023-05-22T05:05:51;96162.28;;;16.31;nan
34328;BME280;20588;48.840;10.064;2023-05-22T05:08:17;96162.56;;;16.39;nan
34328;BME280;20588;48.840;10.064;2023-05-22T05:10:43;96153.53;;;16.47;nan
34328;BME280;20588;48.840;10.064;2023-05-22T05:13:09;96154.59;;;16.51;nan
34328;BME280;20588;48.840;10.064;2023-05-22T05:15:35;96167.13;;;16.69;nan
34328;BME280;20588;48.840;10.064;2023-05-22T05:18:01;96155.50;;;17.11;nan
34328;BME280;20588;48.840;10.064;2023-05-22T05:20:27;96151.88;;;18.31;nan
34328;BME280;20588;48.840;10.064;2023-05-22T05:22:55;96146.03;;;20.22;nan
34328;BME280;20588;48.840;10.064;2023-05-22T05:25:21;96145.25;;;22.24;nan
34328;BME280;20588;48.840;10.064;2023-05-22T05:27:47;96140.16;;;24.01;nan
34328;BME280;20588;48.840;10.064;2023-05-22T05:30:13;96144.09;;;25.36;nan
34328;BME280;20588;48.840;10.064;2023-05-22T05:32:40;96149.56;;;26.52;nan
34328;BME280;20588;48.840;10.064;2023-05-22T05:35:06;96138.22;;;27.43;nan
34328;BME280;20588;48.840;10.064;2023-05-22T05:37:32;96137.50;;;28.23;nan
34328;BME280;20588;48.840;10.064;2023-05-22T05:39:58;96133.03;;;28.75;nan
34328;BME280;20588;48.840;10.064;2023-05-22T05:42:24;96131.97;;;29.31;nan
34328;BME280;20588;48.840;10.064;2023-05-22T05:44:50;96138.00;;;29.71;nan
34328;BME280;20588;48.840;10.064;2023-05-22T05:47:17;96131.22;;;30.05;nan
34328;BME280;20588;48.840;10.064;2023-05-22T05:49:43;96125.31;;;30.12;nan
34328;BME280;20588;48.840;10.064;2023-05-22T05:52:09;96129.13;;;30.26;nan
34328;BME280;20588;48.840;10.064;2023-05-22T05:54:35;96131.00;;;30.26;nan
34328;BME280;20588;48.840;10.064;2023-05-22T05:57:01;96133.03;;;30.17;nan
34328;BME280;20588;48.840;10.064;2023-05-22T05:59:27;96132.25;;;30.01;nan
34328;BME280;20588;48.840;10.064;2023-05-22T06:01:53;96129.44;;;29.62;nan
34328;BME280;20588;48.840;10.064;2023-05-22T06:04:19;96132.25;;;29.14;nan
34328;BME280;20588;48.840;10.064;2023-05-22T06:06:45;96130.84;;;28.65;nan
34328;BME280;20588;48.840;10.064;2023-05-22T06:09:12;96135.03;;;28.18;nan
34328;BME280;20588;48.840;10.064;2023-05-22T06:11:38;96135.97;;;27.77;nan
34328;BME280;20588;48.840;10.064;2023-05-22T06:14:05;96136.22;;;27.40;nan
34328;BME280;20588;48.840;10.064;2023-05-22T06:16:33;96135.50;;;27.10;nan
34328;BME280;20588;48.840;10.064;2023-05-22T06:18:59;96142.28;;;26.99;nan
34328;BME280;20588;48.840;10.064;2023-05-22T06:21:25;96143.97;;;27.04;nan
34328;BME280;20588;48.840;10.064;2023-05-22T06:23:51;96139.50;;;27.16;nan
34328;BME280;20588;48.840;10.064;2023-05-22T06:26:17;96143.78;;;27.29;nan
34328;BME280;20588;48.840;10.064;2023-05-22T06:28:44;96142.84;;;27.46;nan
34328;BME280;20588;48.840;10.064;2023-05-22T06:31:10;96154.34;;;27.62;nan
34328;BME280;20588;48.840;10.064;2023-05-22T06:33:37;96143.69;;;27.82;nan
34328;BME280;20588;48.840;10.064;2023-05-22T06:36:03;96142.31;;;28.09;nan
34328;BME280;20588;48.840;10.064;2023-05-22T06:38:30;96146.63;;;28.38;nan
34328;BME280;20588;48.840;10.064;2023-05-22T06:40:57;96137.94;;;28.61;nan
34328;BME280;20588;48.840;10.064;2023-05-22T06:43:23;96147.59;;;28.81;nan
34328;BME280;20588;48.840;10.064;2023-05-22T06:45:49;96143.22;;;29.13;nan
34328;BME280;20588;48.840;10.064;2023-05-22T06:48:15;96140.38;;;29.33;nan
34328;BME280;20588;48.840;10.064;2023-05-22T06:50:41;96142.56;;;29.59;nan
34328;BME280;20588;48.840;10.064;2023-05-22T06:53:07;96141.16;;;29.77;nan
34328;BME280;20588;48.840;10.064;2023-05-22T06:55:33;96152.47;;;30.05;nan
34328;BME280;20588;48.840;10.064;2023-05-22T06:57:59;96150.53;;;30.33;nan
34328;BME280;20588;48.840;10.064;2023-05-22T07:00:26;96151.59;;;30.63;nan
34328;BME280;20588;48.840;10.064;2023-05-22T07:02:52;96147.66;;;30.92;nan
34328;BME280;20588;48.840;10.064;2023-05-22T07:05:19;96149.88;;;31.24;nan
34328;BME280;20588;48.840;10.064;2023-05-22T07:07:45;96154.28;;;31.55;nan
34328;BME280;20588;48.840;10.064;2023-05-22T07:10:11;96150.25;;;31.84;nan
34328;BME280;20588;48.840;10.064;2023-05-22T07:12:37;96147.63;;;32.10;nan
34328;BME280;20588;48.840;10.064;2023-05-22T07:15:03;96151.31;;;32.24;nan
34328;BME280;20588;48.840;10.064;2023-05-22T07:17:29;96142.69;;;32.34;nan
34328;BME280;20588;48.840;10.064;2023-05-22T07:19:56;96150.94;;;32.48;nan
34328;BME280;20588;48.840;10.064;2023-05-22T07:22:22;96147.31;;;32.37;nan
34328;BME280;20588;48.840;10.064;2023-05-22T07:24:48;96150.09;;;32.22;nan
34328;BME280;20588;48.840;10.064;2023-05-22T07:27:14;96152.13;;;32.28;nan
34328;BME280;20588;48.840;10.064;2023-05-22T07:29:40;96147.84;;;32.46;nan
34328;BME280;20588;48.840;10.064;2023-05-22T07:32:07;96149.34;;;32.70;nan
34328;BME280;20588;48.840;10.064;2023-05-22T07:34:33;96150.03;;;32.93;nan
34328;BME280;20588;48.840;10.064;2023-05-22T07:37:05;96144.75;;;33.26;nan
34328;BME280;20588;48.840;10.064;2023-05-22T07:39:31;96148.00;;;33.13;nan
34328;BME280;20588;48.840;10.064;2023-05-22T07:41:57;96153.84;;;33.55;nan
34328;BME280;20588;48.840;10.064;2023-05-22T07:44:23;96157.09;;;33.38;nan
34328;BME280;20588;48.840;10.064;2023-05-22T07:46:50;96158.53;;;33.65;nan
34328;BME280;20588;48.840;10.064;2023-05-22T07:49:17;96152.53;;;34.15;nan
34328;BME280;20588;48.840;10.064;2023-05-22T07:51:45;96158.09;;;34.43;nan
34328;BME280;20588;48.840;10.064;2023-05-22T07:54:11;96147.97;;;34.69;nan
34328;BME280;20588;48.840;10.064;2023-05-22T07:56:40;96160.63;;;34.80;nan
34328;BME280;20588;48.840;10.064;2023-05-22T07:59:07;96153.13;;;35.03;nan
34328;BME280;20588;48.840;10.064;2023-05-22T08:01:34;96154.75;;;35.21;nan
34328;BME280;20588;48.840;10.064;2023-05-22T08:04:03;96159.47;;;35.49;nan
34328;BME280;20588;48.840;10.064;2023-05-22T08:06:29;96154.88;;;35.53;nan
34328;BME280;20588;48.840;10.064;2023-05-22T08:08:55;96149.50;;;35.46;nan
34328;BME280;20588;48.840;10.064;2023-05-22T08:11:22;96155.25;;;35.58;nan
34328;BME280;20588;48.840;10.064;2023-05-22T08:13:48;96145.78;;;35.82;nan
34328;BME280;20588;48.840;10.064;2023-05-22T08:16:14;96147.69;;;35.92;nan
34328;BME280;20588;48.840;10.064;2023-05-22T08:18:40;96147.69;;;36.13;nan
34328;BME280;20588;48.840;10.064;2023-05-22T08:21:06;96146.16;;;36.44;nan
34328;BME280;20588;48.840;10.064;2023-05-22T08:23:32;96151.13;;;36.56;nan
34328;BME280;20588;48.840;10.064;2023-05-22T08:26:01;96149.94;;;36.71;nan
34328;BME280;20588;48.840;10.064;2023-05-22T08:28:27;96146.50;;;36.91;nan
34328;BME280;20588;48.840;10.064;2023-05-22T08:30:53;96152.22;;;37.00;nan
34328;BME280;20588;48.840;10.064;2023-05-22T08:33:20;96157.09;;;37.30;nan
34328;BME280;20588;48.840;10.064;2023-05-22T08:35:46;96149.41;;;37.32;nan
34328;BME280;20588;48.840;10.064;2023-05-22T08:38:12;96154.44;;;37.23;nan
34328;BME280;20588;48.840;10.064;2023-05-22T08:40:38;96148.25;;;37.36;nan
34328;BME280;20588;48.840;10.064;2023-05-22T08:43:05;96152.34;;;37.58;nan
34328;BME280;20588;48.840;10.064;2023-05-22T08:45:34;96146.84;;;37.79;nan
34328;BME280;20588;48.840;10.064;2023-05-22T08:48:04;96140.38;;;37.73;nan
34328;BME280;20588;48.840;10.064;2023-05-22T08:50:31;96138.09;;;37.65;nan
34328;BME280;20588;48.840;10.064;2023-05-22T08:52:59;96143.28;;;37.97;nan
34328;BME280;20588;48.840;10.064;2023-05-22T08:55:27;96136.06;;;38.38;nan
34328;BME280;20588;48.840;10.064;2023-05-22T08:57:55;96146.22;;;38.64;nan
34328;BME280;20588;48.840;10.064;2023-05-22T09:00:21;96146.00;;;38.81;nan
34328;BME280;20588;48.840;10.064;2023-05-22T09:02:48;96129.63;;;39.02;nan
34328;BME280;20588;48.840;10.064;2023-05-22T09:05:15;96133.59;;;38.57;nan
34328;BME280;20588;48.840;10.064;2023-05-22T09:07:42;96128.50;;;38.63;nan
34328;BME280;20588;48.840;10.064;2023-05-22T09:10:08;96128.78;;;38.75;nan
34328;BME280;20588;48.840;10.064;2023-05-22T09:12:35;96129.38;;;38.90;nan
34328;BME280;20588;48.840;10.064;2023-05-22T09:15:10;96132.00;;;38.97;nan
34328;BME280;20588;48.840;10.064;2023-05-22T09:17:40;96132.81;;;39.27;nan
34328;BME280;20588;48.840;10.064;2023-05-22T09:20:07;96128.94;;;39.59;nan
34328;BME280;20588;48.840;10.064;2023-05-22T09:22:36;96131.09;;;39.40;nan
34328;BME280;20588;48.840;10.064;2023-05-22T09:25:05;96127.75;;;39.29;nan
34328;BME280;20588;48.840;10.064;2023-05-22T09:27:33;96124.78;;;39.20;nan
34328;BME280;20588;48.840;10.064;2023-05-22T09:29:59;96117.75;;;39.30;nan
34328;BME280;20588;48.840;10.064;2023-05-22T09:32:28;96130.56;;;39.53;nan
34328;BME280;20588;48.840;10.064;2023-05-22T09:35:02;96127.75;;;39.60;nan
34328;BME280;20588;48.840;10.064;2023-05-22T09:37:32;96130.56;;;39.53;nan
34328;BME280;20588;48.840;10.064;2023-05-22T09:40:07;96126.13;;;39.35;nan
34328;BME280;20588;48.840;10.064;2023-05-22T09:42:34;96131.25;;;39.26;nan
34328;BME280;20588;48.840;10.064;2023-05-22T09:45:05;96125.84;;;38.96;nan
34328;BME280;20588;48.840;10.064;2023-05-22T09:47:32;96127.59;;;39.13;nan
34328;BME280;20588;48.840;10.064;2023-05-22T09:50:03;96126.00;;;38.82;nan
34328;BME280;20588;48.840;10.064;2023-05-22T09:52:34;96125.84;;;39.30;nan
34328;BME280;20588;48.840;10.064;2023-05-22T09:55:07;96119.59;;;39.06;nan
34328;BME280;20588;48.840;10.064;2023-05-22T09:57:42;96124.41;;;38.88;nan
34328;BME280;20588;48.840;10.064;2023-05-22T10:00:11;96122.06;;;38.53;nan
34328;BME280;20588;48.840;10.064;2023-05-22T10:02:48;96121.63;;;38.14;nan
34328;BME280;20588;48.840;10.064;2023-05-22T10:05:14;96121.28;;;38.56;nan
34328;BME280;20588;48.840;10.064;2023-05-22T10:07:47;96124.75;;;38.53;nan
34328;BME280;20588;48.840;10.064;2023-05-22T10:10:23;96128.41;;;38.73;nan
34328;BME280;20588;48.840;10.064;2023-05-22T10:13:02;96121.44;;;39.13;nan
34328;BME280;20588;48.840;10.064;2023-05-22T10:15:29;96117.38;;;39.28;nan
34328;BME280;20588;48.840;10.064;2023-05-22T10:17:56;96115.22;;;38.82;nan
34328;BME280;20588;48.840;10.064;2023-05-22T10:20:27;96114.59;;;38.71;nan
34328;BME280;20588;48.840;10.064;2023-05-22T10:22:54;96105.13;;;38.53;nan
34328;BME280;20588;48.840;10.064;2023-05-22T10:25:20;96106.66;;;38.17;nan
34328;BME280;20588;48.840;10.064;2023-05-22T10:27:54;96111.44;;;38.39;nan
34328;BME280;20588;48.840;10.064;2023-05-22T10:33:12;96106.25;;;38.92;nan
34328;BME280;20588;48.840;10.064;2023-05-22T10:35:44;96108.81;;;39.06;nan
34328;BME280;20588;48.840;10.064;2023-05-22T10:40:56;96105.44;;;38.65;nan
34328;BME280;20588;48.840;10.064;2023-05-22T10:43:23;96109.09;;;38.82;nan
34328;BME280;20588;48.840;10.064;2023-05-22T10:46:01;96100.47;;;38.94;nan
34328;BME280;20588;48.840;10.064;2023-05-22T10:48:28;96103.78;;;39.08;nan
34328;BME280;20588;48.840;10.064;2023-05-22T10:50:54;96097.47;;;38.88;nan
34328;BME280;20588;48.840;10.064;2023-05-22T10:53:26;96100.50;;;38.90;nan
34328;BME280;20588;48.840;10.064;2023-05-22T10:55:56;96100.66;;;38.76;nan
34328;BME280;20588;48.840;10.064;2023-05-22T10:58:31;96098.44;;;38.71;nan
34328;BME280;20588;48.840;10.064;2023-05-22T11:01:18;96095.13;;;38.90;nan
34328;BME280;20588;48.840;10.064;2023-05-22T11:06:37;96091.28;;;38.91;nan
34328;BME280;20588;48.840;10.064;2023-05-22T11:09:39;96098.03;;;39.06;nan
34328;BME280;20588;48.840;10.064;2023-05-22T11:12:23;96089.16;;;39.09;nan
34328;BME280;20588;48.840;10.064;2023-05-22T11:17:29;96080.25;;;39.39;nan
34328;BME280;20588;48.840;10.064;2023-05-22T11:22:41;96076.25;;;39.50;nan
34328;BME280;20588;48.840;10.064;2023-05-22T11:25:18;96071.97;;;39.26;nan
34328;BME280;20588;48.840;10.064;2023-05-22T11:27:46;96079.38;;;39.19;nan
34328;BME280;20588;48.840;10.064;2023-05-22T11:30:13;96073.22;;;38.88;nan
34328;BME280;20588;48.840;10.064;2023-05-22T11:32:42;96069.19;;;37.88;nan
34328;BME280;20588;48.840;10.064;2023-05-22T11:35:17;96062.09;;;37.61;nan
34328;BME280;20588;48.840;10.064;2023-05-22T11:37:44;96065.38;;;37.86;nan
34328;BME280;20588;48.840;10.064;2023-05-22T11:40:12;96071.47;;;37.90;nan
34328;BME280;20588;48.840;10.064;2023-05-22T11:42:38;96062.41;;;38.21;nan
34328;BME280;20588;48.840;10.064;2023-05-22T11:45:05;96061.81;;;38.40;nan
34328;BME280;20588;48.840;10.064;2023-05-22T11:47:31;96056.19;;;38.28;nan
34328;BME280;20588;48.840;10.064;2023-05-22T11:49:58;96049.91;;;37.97;nan
34328;BME280;20588;48.840;10.064;2023-05-22T11:52:29;96045.66;;;38.00;nan
34328;BME280;20588;48.840;10.064;2023-05-22T11:54:55;96045.59;;;38.07;nan
34328;BME280;20588;48.840;10.064;2023-05-22T11:57:22;96043.63;;;38.14;nan
34328;BME280;20588;48.840;10.064;2023-05-22T11:59:48;96045.47;;;38.21;nan
34328;BME280;20588;48.840;10.064;2023-05-22T12:02:18;96039.56;;;38.36;nan
34328;BME280;20588;48.840;10.064;2023-05-22T12:04:45;96044.84;;;38.43;nan
34328;BME280;20588;48.840;10.064;2023-05-22T12:07:11;96039.38;;;37.72;nan
34328;BME280;20588;48.840;10.064;2023-05-22T12:09:41;96037.94;;;37.54;nan
34328;BME280;20588;48.840;10.064;2023-05-22T12:12:11;96033.28;;;37.61;nan
34328;BME280;20588;48.840;10.064;2023-05-22T12:14:37;96028.13;;;37.30;nan
34328;BME280;20588;48.840;10.064;2023-05-22T12:17:03;96026.91;;;36.59;nan
34328;BME280;20588;48.840;10.064;2023-05-22T12:19:29;96028.34;;;36.88;nan
34328;BME280;20588;48.840;10.064;2023-05-22T12:21:56;96033.13;;;37.28;nan
34328;BME280;20588;48.840;10.064;2023-05-22T12:24:22;96023.31;;;37.62;nan
34328;BME280;20588;48.840;10.064;2023-05-22T12:26:54;96022.88;;;37.70;nan
34328;BME280;20588;48.840;10.064;2023-05-22T12:29:24;96020.22;;;37.60;nan
34328;BME280;20588;48.840;10.064;2023-05-22T12:31:50;96021.31;;;37.73;nan
34328;BME280;20588;48.840;10.064;2023-05-22T12:34:17;96009.47;;;37.67;nan
34328;BME280;20588;48.840;10.064;2023-05-22T12:36:45;96010.59;;;37.69;nan
34328;BME280;20588;48.840;10.064;2023-05-22T12:39:15;96010.81;;;37.38;nan
34328;BME280;20588;48.840;10.064;2023-05-22T12:41:42;96006.19;;;36.66;nan
34328;BME280;20588;48.840;10.064;2023-05-22T12:44:08;96003.09;;;36.71;nan
34328;BME280;20588;48.840;10.064;2023-05-22T12:46:34;95995.84;;;36.65;nan
34328;BME280;20588;48.840;10.064;2023-05-22T12:49:00;96005.19;;;36.21;nan
34328;BME280;20588;48.840;10.064;2023-05-22T12:51:28;96001.38;;;35.80;nan
34328;BME280;20588;48.840;10.064;2023-05-22T12:53:55;96005.22;;;35.44;nan
34328;BME280;20588;48.840;10.064;2023-05-22T12:56:22;96006.19;;;34.80;nan
34328;BME280;20588;48.840;10.064;2023-05-22T12:58:48;96006.03;;;34.41;nan
34328;BME280;20588;48.840;10.064;2023-05-22T13:01:14;96001.25;;;34.82;nan
34328;BME280;20588;48.840;10.064;2023-05-22T13:03:40;95999.00;;;35.05;nan
34328;BME280;20588;48.840;10.064;2023-05-22T13:06:07;95999.81;;;35.16;nan
34328;BME280;20588;48.840;10.064;2023-05-22T13:08:33;96004.84;;;35.60;nan
34328;BME280;20588;48.840;10.064;2023-05-22T13:10:59;95995.28;;;35.94;nan
34328;BME280;20588;48.840;10.064;2023-05-22T13:13:25;95987.94;;;36.08;nan
34328;BME280;20588;48.840;10.064;2023-05-22T13:15:51;95995.19;;;36.33;nan
34328;BME280;20588;48.840;10.064;2023-05-22T13:18:18;95993.19;;;36.54;nan
34328;BME280;20588;48.840;10.064;2023-05-22T13:20:44;95994.63;;;36.80;nan
34328;BME280;20588;48.840;10.064;2023-05-22T13:23:10;95999.63;;;36.85;nan
34328;BME280;20588;48.840;10.064;2023-05-22T13:25:37;95995.00;;;36.85;nan
34328;BME280;20588;48.840;10.064;2023-05-22T13:28:03;95996.97;;;36.78;nan
34328;BME280;20588;48.840;10.064;2023-05-22T13:30:29;95996.59;;;36.69;nan
34328;BME280;20588;48.840;10.064;2023-05-22T13:32:55;95983.34;;;36.23;nan
34328;BME280;20588;48.840;10.064;2023-05-22T13:35:21;95978.03;;;35.98;nan
34328;BME280;20588;48.840;10.064;2023-05-22T13:37:48;95972.69;;;35.77;nan
34328;BME280;20588;48.840;10.064;2023-05-22T13:40:15;95972.31;;;35.68;nan